createdAt,value
2022-08-25T00:00:14.874Z,17.80
2022-08-25T00:02:48.501Z,17.70
2022-08-25T00:05:27.657Z,17.70
2022-08-25T00:07:56.217Z,17.70
2022-08-25T00:10:23.722Z,17.60
2022-08-25T00:12:51.078Z,17.50
2022-08-25T00:15:18.350Z,17.50
2022-08-25T00:17:45.835Z,17.40
2022-08-25T00:20:13.143Z,17.40
2022-08-25T00:22:40.314Z,17.30
2022-08-25T00:25:08.674Z,17.30
2022-08-25T00:27:36.333Z,17.30
2022-08-25T00:30:05.035Z,17.20
2022-08-25T00:32:32.674Z,17.20
2022-08-25T00:35:01.040Z,17.10
2022-08-25T00:37:28.278Z,17.10
2022-08-25T00:39:57.415Z,17.10
2022-08-25T00:42:26.288Z,17.10
2022-08-25T00:44:54.060Z,17.10
2022-08-25T00:47:21.453Z,17.00
2022-08-25T00:49:54.562Z,17.00
2022-08-25T00:52:25.828Z,17.00
2022-08-25T00:54:55.008Z,17.00
2022-08-25T00:57:34.438Z,17.00
2022-08-25T01:00:06.857Z,17.00
2022-08-25T01:02:34.396Z,16.90
2022-08-25T01:05:01.668Z,16.90
2022-08-25T01:07:28.998Z,16.80
2022-08-25T01:09:56.306Z,16.80
2022-08-25T01:12:23.660Z,16.80
2022-08-25T01:14:51.820Z,16.70
2022-08-25T01:17:19.051Z,16.70
2022-08-25T01:19:46.287Z,16.70
2022-08-25T01:22:13.739Z,16.60
2022-08-25T01:25:34.382Z,16.60
2022-08-25T01:28:02.295Z,16.60
2022-08-25T01:30:30.097Z,16.60
2022-08-25T01:32:58.138Z,16.60
2022-08-25T01:35:25.343Z,16.50
2022-08-25T01:37:52.626Z,16.60
2022-08-25T01:40:20.825Z,16.50
2022-08-25T01:43:11.874Z,16.50
2022-08-25T01:45:42.872Z,16.50
2022-08-25T01:48:11.533Z,16.50
2022-08-25T01:50:41.308Z,16.40
2022-08-25T01:53:33.288Z,16.40
2022-08-25T01:56:09.721Z,16.40
2022-08-25T01:58:39.015Z,16.40
2022-08-25T02:01:09.972Z,16.40
2022-08-25T02:03:42.584Z,16.40
2022-08-25T02:06:17.075Z,16.30
2022-08-25T02:08:44.409Z,16.30
2022-08-25T02:11:14.181Z,16.30
2022-08-25T02:13:42.583Z,16.30
2022-08-25T02:16:15.081Z,16.30
2022-08-25T02:18:42.476Z,16.30
2022-08-25T02:21:11.698Z,16.30
2022-08-25T02:23:38.925Z,16.30
2022-08-25T02:26:06.181Z,16.30
2022-08-25T02:28:33.451Z,16.30
2022-08-25T02:31:01.850Z,16.30
2022-08-25T02:33:29.203Z,16.30
2022-08-25T02:36:00.570Z,16.30
2022-08-25T02:38:28.933Z,16.30
2022-08-25T02:40:57.344Z,16.30
2022-08-25T02:43:26.004Z,16.30
2022-08-25T02:45:55.651Z,16.30
2022-08-25T02:48:23.686Z,16.30
2022-08-25T02:50:53.047Z,16.30
2022-08-25T02:53:21.239Z,16.30
2022-08-25T02:55:48.520Z,16.30
2022-08-25T02:58:16.168Z,16.30
2022-08-25T03:00:43.553Z,16.30
2022-08-25T03:03:10.891Z,16.30
2022-08-25T03:05:38.955Z,16.30
2022-08-25T03:08:07.668Z,16.30
2022-08-25T03:10:35.701Z,16.30
2022-08-25T03:13:02.968Z,16.30
2022-08-25T03:15:30.675Z,16.30
2022-08-25T03:17:59.835Z,16.30
2022-08-25T03:20:28.103Z,16.30
2022-08-25T03:22:55.442Z,16.30
2022-08-25T03:25:41.450Z,16.40
2022-08-25T03:28:09.196Z,16.40
2022-08-25T03:30:36.446Z,16.40
2022-08-25T03:33:04.154Z,16.40
2022-08-25T03:35:31.358Z,16.40
2022-08-25T03:38:00.946Z,16.50
2022-08-25T03:40:28.507Z,16.50
2022-08-25T03:42:57.073Z,16.50
2022-08-25T03:45:25.895Z,16.50
2022-08-25T03:47:54.023Z,16.50
2022-08-25T03:50:22.746Z,16.60
2022-08-25T03:52:55.705Z,16.60
2022-08-25T03:55:25.389Z,16.60
2022-08-25T03:57:54.145Z,16.60
2022-08-25T04:00:23.028Z,16.70
2022-08-25T04:02:50.337Z,16.70
2022-08-25T04:05:17.850Z,16.80
2022-08-25T04:07:46.553Z,16.80
2022-08-25T04:10:13.838Z,16.80
2022-08-25T04:12:41.076Z,16.90
2022-08-25T04:15:09.348Z,16.90
2022-08-25T04:17:40.464Z,16.90
2022-08-25T04:20:09.864Z,16.90
2022-08-25T04:22:38.585Z,17.00
2022-08-25T04:25:07.423Z,17.00
2022-08-25T04:27:34.732Z,17.00
2022-08-25T04:30:02.036Z,17.10
2022-08-25T04:32:29.643Z,17.10
2022-08-25T04:34:56.933Z,17.20
2022-08-25T04:37:24.162Z,17.20
2022-08-25T04:39:51.468Z,17.30
2022-08-25T04:42:18.762Z,17.30
2022-08-25T04:44:46.065Z,17.40
2022-08-25T04:47:13.665Z,17.40
2022-08-25T04:49:41.007Z,17.50
2022-08-25T04:52:13.033Z,17.60
2022-08-25T04:54:42.536Z,17.60
2022-08-25T04:57:10.152Z,17.70
2022-08-25T04:59:37.466Z,17.90
2022-08-25T05:02:06.849Z,17.90
2022-08-25T05:04:36.377Z,18.00
2022-08-25T05:07:04.469Z,18.10
2022-08-25T05:09:32.795Z,18.20
2022-08-25T05:12:04.259Z,18.30
2022-08-25T05:14:32.824Z,18.50
2022-08-25T05:17:00.135Z,18.60
2022-08-25T05:19:27.822Z,18.70
2022-08-25T05:21:58.092Z,18.90
2022-08-25T05:24:26.842Z,19.00
2022-08-25T05:26:54.088Z,19.10
2022-08-25T05:29:21.691Z,19.20
2022-08-25T05:31:50.863Z,19.30
2022-08-25T05:34:19.741Z,19.40
2022-08-25T05:36:47.690Z,19.40
2022-08-25T05:39:15.120Z,19.50
2022-08-25T05:41:42.360Z,19.60
2022-08-25T05:44:10.093Z,19.70
2022-08-25T05:46:37.379Z,19.70
2022-08-25T05:49:04.672Z,19.80
2022-08-25T05:51:31.921Z,19.90
2022-08-25T05:53:59.105Z,19.90
2022-08-25T05:56:26.349Z,19.90
2022-08-25T05:58:54.247Z,19.90
2022-08-25T06:01:46.604Z,19.90
2022-08-25T06:04:18.264Z,20.00
2022-08-25T06:06:45.553Z,20.00
2022-08-25T06:09:12.888Z,20.10
2022-08-25T06:11:41.331Z,20.20
2022-08-25T06:14:10.018Z,20.30
2022-08-25T06:16:39.289Z,20.40
2022-08-25T06:19:08.663Z,20.50
2022-08-25T06:21:36.145Z,20.60
2022-08-25T06:24:03.735Z,20.70
2022-08-25T06:26:30.976Z,20.80
2022-08-25T06:28:59.096Z,20.90
2022-08-25T06:31:26.717Z,21.00
2022-08-25T06:33:54.124Z,21.00
2022-08-25T06:36:21.758Z,21.00
2022-08-25T06:38:49.102Z,21.10
2022-08-25T06:41:16.845Z,21.10
2022-08-25T06:43:48.984Z,21.10
2022-08-25T06:46:35.610Z,21.20
2022-08-25T06:49:08.297Z,21.20
2022-08-25T06:51:36.495Z,21.40
2022-08-25T06:54:06.553Z,21.50
2022-08-25T06:56:34.555Z,21.70
2022-08-25T06:59:04.113Z,21.90
2022-08-25T07:01:32.251Z,22.00
2022-08-25T07:04:02.339Z,22.10
2022-08-25T07:06:32.030Z,22.30
2022-08-25T07:08:59.729Z,22.40
2022-08-25T07:11:27.413Z,22.60
2022-08-25T07:13:54.768Z,22.80
2022-08-25T07:16:22.337Z,22.90
2022-08-25T07:18:51.103Z,23.00
2022-08-25T07:21:21.805Z,23.10
2022-08-25T07:23:51.753Z,23.20
2022-08-25T07:26:36.767Z,23.40
2022-08-25T07:29:14.241Z,23.50
2022-08-25T07:31:41.878Z,23.60
2022-08-25T07:34:28.834Z,23.60
2022-08-25T07:36:57.789Z,23.80
2022-08-25T07:39:26.425Z,23.80
2022-08-25T07:41:54.615Z,23.80
2022-08-25T07:44:23.103Z,23.90
2022-08-25T07:46:52.416Z,23.90
2022-08-25T07:49:23.741Z,23.90
2022-08-25T07:52:04.494Z,24.00
2022-08-25T07:54:38.414Z,24.00
2022-08-25T07:57:08.359Z,24.10
2022-08-25T07:59:40.365Z,24.20
2022-08-25T08:02:17.888Z,24.20
2022-08-25T08:04:49.336Z,24.20
2022-08-25T08:07:22.953Z,24.20
2022-08-25T08:10:04.762Z,24.20
2022-08-25T08:12:38.695Z,24.20
2022-08-25T08:15:10.346Z,24.10
2022-08-25T08:17:39.744Z,24.20
2022-08-25T08:20:09.316Z,24.30
2022-08-25T08:22:39.036Z,24.40
2022-08-25T08:25:10.616Z,24.40
2022-08-25T08:27:43.212Z,24.50
2022-08-25T08:30:11.441Z,24.60
2022-08-25T08:33:08.097Z,24.60
2022-08-25T08:35:26.416Z,24.80
2022-08-25T08:37:54.136Z,24.80
2022-08-25T08:40:21.821Z,24.90
2022-08-25T08:43:17.971Z,24.80
2022-08-25T08:45:54.573Z,24.80
2022-08-25T08:48:52.696Z,24.90
2022-08-25T08:51:33.107Z,24.80
2022-08-25T08:54:30.096Z,24.60
2022-08-25T08:57:25.774Z,24.60
2022-08-25T08:59:59.084Z,24.50
2022-08-25T09:02:39.134Z,24.60
2022-08-25T09:05:20.955Z,24.80
2022-08-25T09:08:05.887Z,25.10
2022-08-25T09:10:50.925Z,25.20
2022-08-25T09:13:46.213Z,25.20
2022-08-25T09:17:14.420Z,25.20
2022-08-25T09:20:19.008Z,25.10
2022-08-25T09:22:49.309Z,24.90
2022-08-25T09:25:34.570Z,24.60
2022-08-25T09:28:19.139Z,24.40
2022-08-25T09:31:25.232Z,24.20
2022-08-25T09:33:57.722Z,24.00
2022-08-25T09:36:25.966Z,23.90
2022-08-25T09:38:53.399Z,23.80
2022-08-25T09:41:48.118Z,23.70
2022-08-25T09:44:26.066Z,23.50
2022-08-25T09:47:02.445Z,23.30
2022-08-25T09:49:39.698Z,23.00
2022-08-25T09:52:32.401Z,22.80
2022-08-25T09:55:01.761Z,22.60
2022-08-25T09:57:49.441Z,22.50
2022-08-25T10:00:34.180Z,22.40
2022-08-25T10:03:25.034Z,22.30
2022-08-25T10:06:16.098Z,22.30
2022-08-25T10:08:44.261Z,22.20
2022-08-25T10:11:15.533Z,22.20
2022-08-25T10:13:48.858Z,22.20
2022-08-25T10:16:33.613Z,22.10
2022-08-25T10:19:26.809Z,22.10
2022-08-25T10:22:31.962Z,22.00
2022-08-25T10:25:00.547Z,22.00
2022-08-25T10:27:54.299Z,22.00
2022-08-25T10:30:36.381Z,21.90
2022-08-25T10:33:08.982Z,21.70
2022-08-25T10:36:00.095Z,21.60
2022-08-25T10:38:57.801Z,21.40
2022-08-25T10:41:53.460Z,21.30
2022-08-25T10:44:57.696Z,21.30
2022-08-25T10:47:43.155Z,21.20
2022-08-25T10:50:23.855Z,21.10
2022-08-25T10:53:03.966Z,21.00
2022-08-25T10:55:59.066Z,21.00
2022-08-25T10:58:44.088Z,20.90
2022-08-25T11:02:09.213Z,20.80
2022-08-25T11:04:45.320Z,20.80
2022-08-25T11:07:22.928Z,20.70
2022-08-25T11:09:55.052Z,20.70
2022-08-25T11:12:52.237Z,20.70
2022-08-25T11:15:21.241Z,20.70
2022-08-25T11:18:14.997Z,20.60
2022-08-25T11:21:12.214Z,20.60
2022-08-25T11:23:47.415Z,20.50
2022-08-25T11:26:23.443Z,20.40
2022-08-25T11:29:12.667Z,20.30
2022-08-25T11:31:53.266Z,20.20
2022-08-25T11:34:22.748Z,20.10
2022-08-25T11:37:01.384Z,20.10
2022-08-25T11:40:02.082Z,20.00
2022-08-25T11:43:14.609Z,20.00
2022-08-25T11:46:26.149Z,19.90
2022-08-25T11:49:21.732Z,19.80
2022-08-25T11:51:51.629Z,19.70
2022-08-25T11:54:39.015Z,19.70
2022-08-25T11:57:10.846Z,19.60
2022-08-25T11:59:53.380Z,19.60
2022-08-25T12:02:46.254Z,19.60
2022-08-25T12:05:19.731Z,19.50
2022-08-25T12:08:11.599Z,19.50
2022-08-25T12:11:00.628Z,19.40
2022-08-25T12:13:42.043Z,19.40
2022-08-25T12:16:32.044Z,19.30
2022-08-25T12:19:36.274Z,19.20
2022-08-25T12:22:04.089Z,19.20
2022-08-25T12:24:47.768Z,19.20
2022-08-25T12:27:53.645Z,19.20
2022-08-25T12:30:56.743Z,19.10
2022-08-25T12:33:47.888Z,19.10
2022-08-25T12:36:33.559Z,19.10
2022-08-25T12:39:24.667Z,19.00
2022-08-25T12:44:48.186Z,19.00
2022-08-25T12:47:34.221Z,19.00
2022-08-25T12:50:38.843Z,19.00
2022-08-25T12:53:24.767Z,19.00
2022-08-25T12:56:03.026Z,19.00
2022-08-25T12:59:00.335Z,19.00
2022-08-25T13:01:37.280Z,19.00
2022-08-25T13:04:13.372Z,19.10
2022-08-25T13:07:14.893Z,19.10
2022-08-25T13:10:15.184Z,19.10
2022-08-25T13:13:00.840Z,19.00
2022-08-25T13:15:58.721Z,18.90
2022-08-25T13:18:29.151Z,18.90
2022-08-25T13:21:07.497Z,18.80
2022-08-25T13:23:38.544Z,18.80
2022-08-25T13:26:06.130Z,18.90
2022-08-25T13:28:40.791Z,18.90
2022-08-25T13:31:19.986Z,18.80
2022-08-25T13:34:02.816Z,18.80
2022-08-25T13:36:58.830Z,18.70
2022-08-25T13:39:52.805Z,18.70
2022-08-25T13:42:17.513Z,18.70
2022-08-25T13:44:52.380Z,18.70
2022-08-25T13:47:43.594Z,18.70
2022-08-25T13:50:31.409Z,18.70
2022-08-25T13:53:30.713Z,18.70
2022-08-25T13:56:00.754Z,18.70
2022-08-25T13:58:39.294Z,18.70
2022-08-25T14:01:48.336Z,18.70
2022-08-25T14:04:40.052Z,18.70
2022-08-25T14:07:22.654Z,18.70
2022-08-25T14:09:55.180Z,18.70
2022-08-25T14:12:44.616Z,18.70
2022-08-25T14:15:18.164Z,18.70
2022-08-25T14:17:49.781Z,18.60
2022-08-25T14:20:27.466Z,18.60
2022-08-25T14:23:16.310Z,18.70
2022-08-25T14:25:47.345Z,18.60
2022-08-25T14:28:19.065Z,18.60
2022-08-25T14:30:54.167Z,18.60
2022-08-25T14:33:28.428Z,18.60
2022-08-25T14:36:00.205Z,18.60
2022-08-25T14:38:27.326Z,18.60
2022-08-25T14:40:54.873Z,18.60
2022-08-25T14:43:31.750Z,18.60
2022-08-25T14:46:00.922Z,18.50
2022-08-25T14:48:54.551Z,18.50
2022-08-25T14:51:24.839Z,18.50
2022-08-25T14:53:54.211Z,18.50
2022-08-25T14:56:21.499Z,18.50
2022-08-25T14:58:53.951Z,18.50
2022-08-25T15:01:28.952Z,18.50
2022-08-25T15:04:02.651Z,18.50
2022-08-25T15:06:30.306Z,18.60
2022-08-25T15:09:11.354Z,18.60
2022-08-25T15:11:47.117Z,18.60
2022-08-25T15:14:17.743Z,18.60
2022-08-25T15:16:50.354Z,18.70
2022-08-25T15:19:20.969Z,18.70
2022-08-25T15:21:51.770Z,18.70
2022-08-25T15:24:21.231Z,18.70
2022-08-25T15:26:55.889Z,18.80
2022-08-25T15:29:27.700Z,18.80
2022-08-25T15:31:55.119Z,18.70
2022-08-25T15:34:22.834Z,18.70
2022-08-25T15:36:50.632Z,18.80
2022-08-25T15:39:19.272Z,18.70
2022-08-25T15:41:52.619Z,18.80
2022-08-25T15:44:20.257Z,18.80
2022-08-25T15:46:50.327Z,18.70
2022-08-25T15:49:20.863Z,18.60
2022-08-25T15:51:54.970Z,18.60
2022-08-25T15:54:24.046Z,18.60
2022-08-25T15:56:55.181Z,18.60
2022-08-25T15:59:22.770Z,18.50
2022-08-25T16:01:55.842Z,18.50
2022-08-25T16:04:24.925Z,18.40
2022-08-25T16:06:52.441Z,18.40
2022-08-25T16:09:23.059Z,18.40
2022-08-25T16:11:56.546Z,18.40
2022-08-25T16:14:27.676Z,18.40
2022-08-25T16:16:58.294Z,18.40
2022-08-25T16:19:27.649Z,18.40
2022-08-25T16:21:55.118Z,18.40
2022-08-25T16:24:22.432Z,18.40
2022-08-25T16:26:50.502Z,18.40
2022-08-25T16:29:20.261Z,18.40
2022-08-25T16:31:53.089Z,18.40
2022-08-25T16:34:24.461Z,18.40
2022-08-25T16:36:53.018Z,18.50
2022-08-25T16:39:21.710Z,18.50
2022-08-25T16:41:52.238Z,18.70
2022-08-25T16:44:21.410Z,18.70
2022-08-25T16:46:54.481Z,18.70
2022-08-25T16:49:24.643Z,18.70
2022-08-25T16:51:56.947Z,18.80
2022-08-25T16:54:44.775Z,18.80
2022-08-25T16:57:12.295Z,18.80
2022-08-25T16:59:39.614Z,18.80
2022-08-25T17:02:06.952Z,18.80
2022-08-25T17:04:34.161Z,18.80
2022-08-25T17:07:01.748Z,18.80
2022-08-25T17:09:30.899Z,18.90
2022-08-25T17:11:58.479Z,18.80
2022-08-25T17:14:26.293Z,18.90
2022-08-25T17:16:56.600Z,18.90
2022-08-25T17:19:26.525Z,18.90
2022-08-25T17:21:54.930Z,18.90
2022-08-25T17:24:22.560Z,18.80
2022-08-25T17:26:56.978Z,18.80
2022-08-25T17:29:24.759Z,18.80
2022-08-25T17:31:52.118Z,18.80
2022-08-25T17:34:23.192Z,18.70
2022-08-25T17:36:51.968Z,18.70
2022-08-25T17:39:22.366Z,18.70
2022-08-25T17:41:50.789Z,18.60
2022-08-25T17:44:18.938Z,18.50
2022-08-25T17:46:47.575Z,18.50
2022-08-25T17:49:16.184Z,18.40
2022-08-25T17:51:43.545Z,18.40
2022-08-25T17:54:12.688Z,18.30
2022-08-25T17:56:40.260Z,18.30
2022-08-25T17:59:08.198Z,18.20
2022-08-25T18:01:40.622Z,18.20
2022-08-25T18:04:17.362Z,18.10
2022-08-25T18:06:46.639Z,18.10
2022-08-25T18:09:14.644Z,18.00
2022-08-25T18:11:42.693Z,18.00
2022-08-25T18:14:11.577Z,18.00
2022-08-25T18:16:39.147Z,18.00
2022-08-25T18:19:06.513Z,18.00
2022-08-25T18:21:37.410Z,18.00
2022-08-25T18:24:05.945Z,17.90
2022-08-25T18:26:34.842Z,17.90
2022-08-25T18:29:02.948Z,17.90
2022-08-25T18:31:32.202Z,17.80
2022-08-25T18:33:59.569Z,17.80
2022-08-25T18:36:26.686Z,17.80
2022-08-25T18:39:13.656Z,17.80
2022-08-25T18:41:42.710Z,17.70
2022-08-25T18:44:12.599Z,17.70
2022-08-25T18:46:43.508Z,17.70
2022-08-25T18:49:15.769Z,17.70
2022-08-25T18:51:44.984Z,17.70
2022-08-25T18:54:22.432Z,17.70
2022-08-25T18:56:52.644Z,17.70
2022-08-25T18:59:20.323Z,17.70
2022-08-25T19:01:51.789Z,17.60
2022-08-25T19:04:19.086Z,17.60
2022-08-25T19:06:46.659Z,17.60
2022-08-25T19:09:14.005Z,17.60
2022-08-25T19:11:43.549Z,17.50
2022-08-25T19:14:12.685Z,17.50
2022-08-25T19:16:43.591Z,17.50
2022-08-25T19:19:13.507Z,17.40
2022-08-25T19:21:42.229Z,17.40
2022-08-25T19:24:11.047Z,17.40
2022-08-25T19:26:40.403Z,17.30
2022-08-25T19:29:12.885Z,17.30
2022-08-25T19:31:42.566Z,17.30
2022-08-25T19:34:13.028Z,17.30
2022-08-25T19:36:41.686Z,17.20
2022-08-25T19:39:10.451Z,17.20
2022-08-25T19:41:37.742Z,17.20
2022-08-25T19:44:05.680Z,17.10
2022-08-25T19:46:36.117Z,17.10
2022-08-25T19:49:08.899Z,17.10
2022-08-25T19:51:43.867Z,17.10
2022-08-25T19:54:13.949Z,17.00
2022-08-25T19:56:43.489Z,17.00
2022-08-25T19:59:22.960Z,17.00
2022-08-25T20:01:50.477Z,17.00
2022-08-25T20:04:17.958Z,17.00
2022-08-25T20:06:48.120Z,16.90
2022-08-25T20:09:21.131Z,16.90
2022-08-25T20:12:06.315Z,16.90
2022-08-25T20:14:34.901Z,16.90
2022-08-25T20:17:02.363Z,16.90
2022-08-25T20:19:31.321Z,16.90
2022-08-25T20:21:59.341Z,16.90
2022-08-25T20:24:46.497Z,16.80
2022-08-25T20:27:13.683Z,16.80
2022-08-25T20:29:40.790Z,16.80
2022-08-25T20:32:11.810Z,16.80
2022-08-25T20:34:38.993Z,16.80
2022-08-25T20:37:06.824Z,16.80
2022-08-25T20:39:34.142Z,16.80
2022-08-25T20:42:02.619Z,16.80
2022-08-25T20:44:35.168Z,16.70
2022-08-25T20:47:10.475Z,16.70
2022-08-25T20:49:39.852Z,16.70
2022-08-25T20:52:08.109Z,16.70
2022-08-25T20:54:35.874Z,16.70
2022-08-25T20:57:03.512Z,16.70
2022-08-25T20:59:33.364Z,16.70
2022-08-25T21:02:00.678Z,16.60
2022-08-25T21:04:30.178Z,16.60
2022-08-25T21:07:01.338Z,16.60
2022-08-25T21:09:29.319Z,16.50
2022-08-25T21:11:57.947Z,16.50
2022-08-25T21:14:26.431Z,16.40
2022-08-25T21:16:54.520Z,16.40
2022-08-25T21:19:26.672Z,16.40
2022-08-25T21:21:59.855Z,16.30
2022-08-25T21:24:28.571Z,16.30
2022-08-25T21:26:58.150Z,16.30
2022-08-25T21:29:28.425Z,16.20
2022-08-25T21:31:58.845Z,16.20
2022-08-25T21:34:28.864Z,16.10
2022-08-25T21:36:58.170Z,16.10
2022-08-25T21:39:28.669Z,16.10
2022-08-25T21:41:59.883Z,16.00
2022-08-25T21:44:28.430Z,16.00
2022-08-25T21:46:56.351Z,15.90
2022-08-25T21:49:25.274Z,15.90
2022-08-25T21:52:02.353Z,15.90
2022-08-25T21:54:32.956Z,15.90
2022-08-25T21:57:04.049Z,15.90
2022-08-25T21:59:36.228Z,15.90
2022-08-25T22:02:08.795Z,15.90
2022-08-25T22:04:36.971Z,15.80
2022-08-25T22:07:07.200Z,15.80
2022-08-25T22:09:35.757Z,15.90
2022-08-25T22:12:04.470Z,15.90
2022-08-25T22:14:32.658Z,15.90
2022-08-25T22:17:00.171Z,15.90
2022-08-25T22:19:27.841Z,15.90
2022-08-25T22:21:56.536Z,15.90
2022-08-25T22:24:28.424Z,15.90
2022-08-25T22:26:56.339Z,15.90
2022-08-25T22:29:25.902Z,15.90
2022-08-25T22:31:59.436Z,15.90
2022-08-25T22:34:33.014Z,15.90
2022-08-25T22:37:05.228Z,15.90
2022-08-25T22:39:34.280Z,15.80
2022-08-25T22:42:03.040Z,15.80
2022-08-25T22:44:30.465Z,15.80
2022-08-25T22:46:57.841Z,15.80
2022-08-25T22:49:28.901Z,15.70
2022-08-25T22:51:56.295Z,15.70
2022-08-25T22:54:23.830Z,15.70
2022-08-25T22:56:52.927Z,15.70
2022-08-25T22:59:20.658Z,15.60
2022-08-25T23:01:52.643Z,15.60
2022-08-25T23:04:22.332Z,15.60
2022-08-25T23:06:50.235Z,15.60
2022-08-25T23:09:17.813Z,15.50
2022-08-25T23:11:45.320Z,15.50
2022-08-25T23:14:13.312Z,15.40
2022-08-25T23:16:43.065Z,15.40
2022-08-25T23:19:13.800Z,15.30
2022-08-25T23:22:01.847Z,15.40
2022-08-25T23:24:30.876Z,15.30
2022-08-25T23:27:00.684Z,15.30
2022-08-25T23:29:28.936Z,15.20
2022-08-25T23:31:56.927Z,15.20
2022-08-25T23:34:24.740Z,15.10
2022-08-25T23:36:52.126Z,15.10
2022-08-25T23:39:21.792Z,15.10
2022-08-25T23:41:50.179Z,15.00
2022-08-25T23:44:18.907Z,15.00
2022-08-25T23:46:47.678Z,15.00
2022-08-25T23:49:19.786Z,14.90
2022-08-25T23:51:53.062Z,14.90
2022-08-25T23:54:21.367Z,14.90
2022-08-25T23:56:52.489Z,14.90
2022-08-25T23:59:24.012Z,14.90
